Time,TemperatureF,DewpointF,PressureIn,WindDirection,WindDirectionDegrees,WindSpeedMPH,WindSpeedGustMPH,Humidity,HourlyPrecipIn,Conditions,Clouds,dailyrainin,SoftwareType,DateUTC
2013-09-09 00:00:00,63.9,56.2,29.68,NNE,14,0.0,0.0,76,0.00,,,0.00,Wunderground v.1.15,2013-09-09 06:00:00,
2013-09-09 00:10:00,64.3,57.3,29.67,NNE,14,0.0,0.0,78,0.00,,,0.00,Wunderground v.1.15,2013-09-09 06:10:00,
2013-09-09 00:20:00,64.4,56.7,29.67,NW,313,1.0,2.0,76,0.00,,,0.00,Wunderground v.1.15,2013-09-09 06:20:00,
2013-09-09 00:30:00,64.2,56.5,29.67,NW,313,1.0,1.0,76,0.00,,,0.00,Wunderground v.1.15,2013-09-09 06:30:00,
2013-09-09 00:40:00,64.1,56.4,29.68,NW,313,0.0,0.0,76,0.00,,,0.00,Wunderground v.1.15,2013-09-09 06:40:00,
2013-09-09 00:50:00,64.0,56.6,29.67,NW,313,0.0,0.0,77,0.00,,,0.00,Wunderground v.1.15,2013-09-09 06:50:00,
2013-09-09 01:00:00,63.7,56.4,29.68,NW,313,0.0,0.0,77,0.00,,,0.00,Wunderground v.1.15,2013-09-09 07:00:00,
2013-09-09 01:10:00,63.9,56.9,29.68,NW,313,0.0,0.0,78,0.00,,,0.00,Wunderground v.1.15,2013-09-09 07:10:00,
2013-09-09 01:20:00,64.0,56.6,29.68,NW,313,0.0,0.0,77,0.00,,,0.00,Wunderground v.1.15,2013-09-09 07:20:00,
2013-09-09 01:30:00,64.5,56.8,29.67,NW,313,0.0,0.0,76,0.00,,,0.00,Wunderground v.1.15,2013-09-09 07:30:00,
2013-09-09 01:40:00,64.8,56.7,29.67,NW,313,0.0,0.0,75,0.00,,,0.00,Wunderground v.1.15,2013-09-09 07:40:00,
2013-09-09 01:50:00,64.9,56.4,29.68,NW,313,0.0,1.0,74,0.00,,,0.00,Wunderground v.1.15,2013-09-09 07:50:00,
2013-09-09 02:00:00,65.0,56.5,29.67,NW,315,0.0,0.0,74,0.00,,,0.00,Wunderground v.1.15,2013-09-09 08:00:00,
2013-09-09 02:10:00,64.9,56.8,29.68,NW,316,0.0,0.0,75,0.00,,,0.00,Wunderground v.1.15,2013-09-09 08:10:00,
2013-09-09 02:20:00,64.8,57.1,29.68,NW,316,0.0,0.0,76,0.00,,,0.00,Wunderground v.1.15,2013-09-09 08:20:00,
2013-09-09 02:30:00,64.6,56.9,29.68,NW,316,0.0,0.0,76,0.00,,,0.00,Wunderground v.1.15,2013-09-09 08:30:00,
2013-09-09 02:40:00,64.5,57.1,29.68,NW,316,0.0,0.0,77,0.00,,,0.00,Wunderground v.1.15,2013-09-09 08:40:00,
2013-09-09 02:50:00,64.3,57.3,29.68,NW,316,0.0,0.0,78,0.00,,,0.00,Wunderground v.1.15,2013-09-09 08:50:00,
2013-09-09 03:00:00,64.3,57.3,29.68,NW,315,0.0,0.0,78,0.00,,,0.00,Wunderground v.1.15,2013-09-09 09:00:00,
2013-09-09 03:10:00,64.2,57.2,29.69,NW,316,0.0,0.0,78,0.00,,,0.00,Wunderground v.1.15,2013-09-09 09:10:00,
2013-09-09 03:20:00,64.0,57.7,29.70,NW,316,0.0,0.0,80,0.00,,,0.01,Wunderground v.1.15,2013-09-09 09:20:00,
2013-09-09 03:30:00,63.9,58.0,29.70,NW,317,0.0,1.0,81,0.49,,,0.06,Wunderground v.1.15,2013-09-09 09:30:00,
2013-09-09 03:50:00,63.2,58.6,29.70,NNW,346,0.0,0.0,85,0.07,,,0.09,Wunderground v.1.15,2013-09-09 09:50:00,
2013-09-09 04:00:00,63.3,58.7,29.70,NNW,346,0.0,0.0,85,0.04,,,0.09,Wunderground v.1.15,2013-09-09 10:00:00,
2013-09-09 04:10:00,63.2,58.9,29.70,NNW,346,0.0,0.0,86,0.00,,,0.09,Wunderground v.1.15,2013-09-09 10:10:00,
2013-09-09 04:20:00,63.3,59.0,29.70,NNW,347,0.0,1.0,86,0.00,,,0.09,Wunderground v.1.15,2013-09-09 10:20:00,
2013-09-09 04:30:00,63.4,59.5,29.69,NNE,24,0.0,0.0,87,0.00,,,0.09,Wunderground v.1.15,2013-09-09 10:30:00,
2013-09-09 04:40:00,63.3,59.4,29.70,NNE,24,0.0,0.0,87,0.00,,,0.09,Wunderground v.1.15,2013-09-09 10:40:00,
2013-09-09 04:50:00,63.3,59.4,29.69,NNE,24,0.0,0.0,87,0.00,,,0.09,Wunderground v.1.15,2013-09-09 10:50:00,
2013-09-09 05:00:00,63.2,59.3,29.69,NNE,24,0.0,0.0,87,0.00,,,0.09,Wunderground v.1.15,2013-09-09 11:00:00,
2013-09-09 05:10:00,63.1,59.2,29.70,NNE,24,0.0,0.0,87,0.00,,,0.09,Wunderground v.1.15,2013-09-09 11:10:00,
2013-09-09 05:20:00,63.2,59.3,29.70,NNE,24,0.0,0.0,87,0.00,,,0.09,Wunderground v.1.15,2013-09-09 11:20:00,
2013-09-09 05:30:00,63.2,59.6,29.69,NNE,24,0.0,0.0,88,0.00,,,0.09,Wunderground v.1.15,2013-09-09 11:30:00,
2013-09-09 05:40:00,63.3,59.7,29.69,NE,53,0.0,0.0,88,0.00,,,0.09,Wunderground v.1.15,2013-09-09 11:40:00,
2013-09-09 05:50:00,63.4,59.8,29.69,NE,52,0.0,0.0,88,0.00,,,0.10,Wunderground v.1.15,2013-09-09 11:50:00,
2013-09-09 06:00:00,63.2,59.6,29.69,NE,52,0.0,0.0,88,0.00,,,0.10,Wunderground v.1.15,2013-09-09 12:00:00,
2013-09-09 06:10:00,63.2,59.6,29.69,NE,52,0.0,0.0,88,0.00,,,0.10,Wunderground v.1.15,2013-09-09 12:10:00,
2013-09-09 06:20:00,63.1,59.5,29.69,NE,53,0.0,0.0,88,0.00,,,0.10,Wunderground v.1.15,2013-09-09 12:20:00,
2013-09-09 06:30:00,63.2,59.6,29.69,NE,53,0.0,0.0,88,0.00,,,0.10,Wunderground v.1.15,2013-09-09 12:30:00,
2013-09-09 06:40:00,63.2,59.6,29.69,ENE,60,0.0,0.0,88,0.00,,,0.10,Wunderground v.1.15,2013-09-09 12:40:00,
2013-09-09 06:50:00,63.3,59.7,29.69,ESE,110,0.0,0.0,88,0.00,,,0.10,Wunderground v.1.15,2013-09-09 12:50:00,
2013-09-09 07:00:00,63.2,59.6,29.70,ESE,110,0.0,0.0,88,0.00,,,0.10,Wunderground v.1.15,2013-09-09 13:00:00,
2013-09-09 07:10:00,63.1,59.5,29.73,ESE,110,0.0,0.0,88,0.00,,,0.10,Wunderground v.1.15,2013-09-09 13:10:00,
2013-09-09 07:20:00,63.2,59.6,29.72,ESE,110,0.0,0.0,88,0.00,,,0.10,Wunderground v.1.15,2013-09-09 13:20:00,
2013-09-09 07:30:00,63.2,59.6,29.73,ESE,110,0.0,0.0,88,0.00,,,0.10,Wunderground v.1.15,2013-09-09 13:30:00,
2013-09-09 07:40:00,63.2,59.6,29.72,ESE,110,0.0,0.0,88,0.00,,,0.10,Wunderground v.1.15,2013-09-09 13:40:00,
2013-09-09 07:50:00,63.2,59.9,29.73,ESE,110,0.0,0.0,89,0.00,,,0.10,Wunderground v.1.15,2013-09-09 13:50:00,
2013-09-09 08:00:00,63.3,60.0,29.73,ESE,110,0.0,0.0,89,0.00,,,0.10,Wunderground v.1.15,2013-09-09 14:00:00,
2013-09-09 08:10:00,63.5,60.2,29.73,ESE,110,0.0,0.0,89,0.00,,,0.10,Wunderground v.1.15,2013-09-09 14:10:00,
2013-09-09 08:20:00,63.5,60.2,29.73,ESE,110,0.0,0.0,89,0.00,,,0.10,Wunderground v.1.15,2013-09-09 14:20:00,
2013-09-09 08:30:00,63.6,60.3,29.73,ESE,110,0.0,0.0,89,0.00,,,0.10,Wunderground v.1.15,2013-09-09 14:30:00,
2013-09-09 08:40:00,63.8,60.5,29.72,ESE,110,0.0,0.0,89,0.00,,,0.10,Wunderground v.1.15,2013-09-09 14:40:00,
2013-09-09 08:50:00,63.8,60.5,29.73,ESE,110,0.0,0.0,89,0.00,,,0.10,Wunderground v.1.15,2013-09-09 14:50:00,
2013-09-09 09:00:00,63.0,59.4,29.76,SW,215,4.0,25.0,88,0.00,,,0.11,Wunderground v.1.15,2013-09-09 15:00:00,
2013-09-09 09:10:00,58.1,53.9,29.81,West,271,13.0,13.0,86,0.78,,,0.38,Wunderground v.1.15,2013-09-09 15:10:00,
2013-09-09 09:20:00,57.4,53.9,29.80,West,271,1.0,1.0,88,0.27,,,0.41,Wunderground v.1.15,2013-09-09 15:20:00,
2013-09-09 09:30:00,57.4,54.2,29.80,West,271,0.0,0.0,89,0.09,,,0.42,Wunderground v.1.15,2013-09-09 15:30:00,
2013-09-09 09:40:00,57.7,54.5,29.80,West,272,0.0,0.0,89,0.04,,,0.42,Wunderground v.1.15,2013-09-09 15:40:00,
2013-09-09 09:50:00,58.4,55.2,29.81,NE,38,2.0,4.0,89,0.00,,,0.42,Wunderground v.1.15,2013-09-09 15:50:00,
2013-09-09 10:00:00,59.0,55.8,29.79,NE,53,4.0,4.0,89,0.00,,,0.42,Wunderground v.1.15,2013-09-09 16:00:00,
2013-09-09 10:10:00,59.5,56.3,29.80,NE,55,2.0,2.0,89,0.00,,,0.42,Wunderground v.1.15,2013-09-09 16:10:00,
2013-09-09 10:20:00,59.9,56.6,29.79,ENE,74,1.0,3.0,89,0.00,,,0.42,Wunderground v.1.15,2013-09-09 16:20:00,
2013-09-09 10:30:00,60.5,57.2,29.79,ENE,75,0.0,0.0,89,0.00,,,0.42,Wunderground v.1.15,2013-09-09 16:30:00,
2013-09-09 10:40:00,60.9,57.6,29.79,ENE,75,0.0,0.0,89,0.00,,,0.42,Wunderground v.1.15,2013-09-09 16:40:00,
2013-09-09 10:50:00,60.9,57.6,29.79,South,182,1.0,1.0,89,0.00,,,0.42,Wunderground v.1.15,2013-09-09 16:50:00,
2013-09-09 11:00:00,61.0,57.4,29.80,South,171,1.0,1.0,88,0.00,,,0.42,Wunderground v.1.15,2013-09-09 17:00:00,
2013-09-09 11:10:00,61.0,57.4,29.80,South,172,1.0,1.0,88,0.00,,,0.42,Wunderground v.1.15,2013-09-09 17:10:00,
2013-09-09 11:20:00,61.3,57.7,29.80,South,172,0.0,0.0,88,0.00,,,0.42,Wunderground v.1.15,2013-09-09 17:20:00,
2013-09-09 11:30:00,61.6,58.0,29.80,South,171,0.0,0.0,88,0.00,,,0.42,Wunderground v.1.15,2013-09-09 17:30:00,
2013-09-09 11:40:00,61.8,57.9,29.80,South,171,0.0,0.0,87,0.00,,,0.42,Wunderground v.1.15,2013-09-09 17:40:00,
2013-09-09 11:50:00,62.0,58.1,29.80,East,101,0.0,0.0,87,0.00,,,0.42,Wunderground v.1.15,2013-09-09 17:50:00,
2013-09-09 12:00:00,61.9,58.0,29.80,East,101,0.0,0.0,87,0.14,,,0.44,Wunderground v.1.15,2013-09-09 18:00:00,
2013-09-09 12:10:00,61.6,57.7,29.80,East,91,1.0,1.0,87,0.09,,,0.45,Wunderground v.1.15,2013-09-09 18:10:00,
2013-09-09 12:20:00,61.6,58.0,29.80,ESE,103,0.0,0.0,88,0.04,,,0.45,Wunderground v.1.15,2013-09-09 18:20:00,
2013-09-09 12:30:00,61.7,58.1,29.79,ESE,103,0.0,0.0,88,0.00,,,0.45,Wunderground v.1.15,2013-09-09 18:30:00,
2013-09-09 12:40:00,61.8,58.2,29.79,ESE,104,0.0,0.0,88,0.00,,,0.46,Wunderground v.1.15,2013-09-09 18:40:00,
2013-09-09 12:50:00,61.6,58.0,29.79,ESE,104,0.0,0.0,88,0.24,,,0.50,Wunderground v.1.15,2013-09-09 18:50:00,
2013-09-09 13:00:00,61.8,58.5,29.80,SE,145,1.0,2.0,89,0.08,,,0.52,Wunderground v.1.15,2013-09-09 19:00:00,
2013-09-09 13:10:00,61.8,58.5,29.80,SE,136,0.0,0.0,89,0.19,,,0.54,Wunderground v.1.15,2013-09-09 19:10:00,
2013-09-09 13:20:00,61.6,58.3,29.79,SE,136,0.0,0.0,89,0.14,,,0.56,Wunderground v.1.15,2013-09-09 19:20:00,
2013-09-09 13:30:00,61.4,58.1,29.78,ENE,78,1.0,1.0,89,0.14,,,0.59,Wunderground v.1.15,2013-09-09 19:30:00,
2013-09-09 13:40:00,61.4,58.1,29.79,East,79,0.0,0.0,89,0.21,,,0.62,Wunderground v.1.15,2013-09-09 19:40:00,
2013-09-09 13:50:00,61.4,58.1,29.79,East,82,0.0,0.0,89,0.35,,,0.66,Wunderground v.1.15,2013-09-09 19:50:00,
2013-09-09 14:00:00,61.3,58.0,29.80,SE,134,1.0,2.0,89,0.30,,,0.70,Wunderground v.1.15,2013-09-09 20:00:00,
2013-09-09 14:10:00,61.3,58.3,29.80,ESE,114,0.0,0.0,90,0.18,,,0.74,Wunderground v.1.15,2013-09-09 20:10:00,
2013-09-09 14:20:00,61.5,58.5,29.79,ESE,115,0.0,0.0,90,0.08,,,0.76,Wunderground v.1.15,2013-09-09 20:20:00,
2013-09-09 14:30:00,61.5,58.5,29.79,SE,126,0.0,0.0,90,0.09,,,0.77,Wunderground v.1.15,2013-09-09 20:30:00,
2013-09-09 14:40:00,61.4,58.4,29.80,SE,126,0.0,2.0,90,0.07,,,0.78,Wunderground v.1.15,2013-09-09 20:40:00,
2013-09-09 14:50:00,61.4,58.4,29.80,ESE,113,1.0,1.0,90,0.16,,,0.80,Wunderground v.1.15,2013-09-09 20:50:00,
2013-09-09 15:00:00,61.1,58.1,29.80,SE,144,2.0,2.0,90,0.13,,,0.82,Wunderground v.1.15,2013-09-09 21:00:00,
2013-09-09 15:10:00,60.9,57.9,29.80,SE,136,2.0,5.0,90,0.06,,,0.83,Wunderground v.1.15,2013-09-09 21:10:00,
2013-09-09 15:20:00,60.7,57.7,29.79,SE,124,2.0,2.0,90,0.25,,,0.86,Wunderground v.1.15,2013-09-09 21:20:00,
2013-09-09 15:30:00,60.8,57.8,29.78,ESE,122,2.0,6.0,90,0.09,,,0.87,Wunderground v.1.15,2013-09-09 21:30:00,
2013-09-09 15:40:00,60.6,57.7,29.78,East,92,1.0,1.0,90,0.04,,,0.87,Wunderground v.1.15,2013-09-09 21:40:00,
2013-09-09 15:50:00,60.8,57.8,29.78,East,92,1.0,1.0,90,0.00,,,0.87,Wunderground v.1.15,2013-09-09 21:50:00,
2013-09-09 16:00:00,61.1,58.1,29.79,East,93,0.0,0.0,90,0.00,,,0.88,Wunderground v.1.15,2013-09-09 22:00:00,
2013-09-09 16:10:00,61.3,58.3,29.78,East,93,0.0,0.0,90,0.08,,,0.89,Wunderground v.1.15,2013-09-09 22:10:00,
2013-09-09 16:20:00,61.3,58.3,29.78,East,92,0.0,0.0,90,0.06,,,0.90,Wunderground v.1.15,2013-09-09 22:20:00,
2013-09-09 16:30:00,61.2,58.2,29.78,East,92,0.0,0.0,90,0.04,,,0.90,Wunderground v.1.15,2013-09-09 22:30:00,
2013-09-09 16:40:00,61.4,58.4,29.78,East,92,0.0,0.0,90,0.00,,,0.91,Wunderground v.1.15,2013-09-09 22:40:00,
2013-09-09 16:50:00,61.3,58.3,29.78,East,93,0.0,2.0,90,0.07,,,0.92,Wunderground v.1.15,2013-09-09 22:50:00,
2013-09-09 17:00:00,61.4,58.4,29.78,East,92,0.0,0.0,90,0.05,,,0.92,Wunderground v.1.15,2013-09-09 23:00:00,
2013-09-09 17:10:00,61.5,58.5,29.78,East,92,0.0,0.0,90,0.00,,,0.92,Wunderground v.1.15,2013-09-09 23:10:00,
2013-09-09 17:20:00,61.6,58.6,29.78,East,93,0.0,0.0,90,0.00,,,0.92,Wunderground v.1.15,2013-09-09 23:20:00,
2013-09-09 17:30:00,61.6,58.6,29.78,East,93,0.0,0.0,90,0.00,,,0.93,Wunderground v.1.15,2013-09-09 23:30:00,
2013-09-09 17:40:00,61.4,58.1,29.77,East,92,0.0,0.0,89,0.04,,,0.94,Wunderground v.1.15,2013-09-09 23:40:00,
2013-09-09 17:50:00,61.4,58.1,29.76,NE,53,0.0,0.0,89,0.05,,,0.95,Wunderground v.1.15,2013-09-09 23:50:00,
2013-09-09 18:00:00,61.4,58.1,29.78,South,169,1.0,1.0,89,0.07,,,0.96,Wunderground v.1.15,2013-09-10 00:00:00,
2013-09-09 18:10:00,61.5,58.2,29.77,South,169,0.0,0.0,89,0.00,,,0.96,Wunderground v.1.15,2013-09-10 00:10:00,
2013-09-09 18:20:00,61.6,58.3,29.77,SSE,155,0.0,0.0,89,0.00,,,0.96,Wunderground v.1.15,2013-09-10 00:20:00,
2013-09-09 18:30:00,61.7,58.4,29.76,SSE,155,0.0,0.0,89,0.00,,,0.96,Wunderground v.1.15,2013-09-10 00:30:00,
2013-09-09 18:40:00,61.9,58.6,29.75,SE,137,0.0,0.0,89,0.00,,,0.96,Wunderground v.1.15,2013-09-10 00:40:00,
2013-09-09 18:50:00,61.7,58.4,29.75,SE,137,0.0,0.0,89,0.00,,,0.96,Wunderground v.1.15,2013-09-10 00:50:00,
2013-09-09 19:00:00,61.6,58.3,29.75,SE,137,0.0,0.0,89,0.00,,,0.96,Wunderground v.1.15,2013-09-10 01:00:00,
2013-09-09 19:10:00,61.6,58.3,29.75,SE,137,0.0,0.0,89,0.00,,,0.96,Wunderground v.1.15,2013-09-10 01:10:00,
2013-09-09 19:20:00,61.4,58.1,29.75,SE,137,0.0,0.0,89,0.00,,,0.96,Wunderground v.1.15,2013-09-10 01:20:00,
2013-09-09 19:30:00,61.3,58.3,29.75,SE,137,0.0,0.0,90,0.00,,,0.96,Wunderground v.1.15,2013-09-10 01:30:00,
2013-09-09 19:40:00,61.3,58.3,29.75,SE,137,0.0,0.0,90,0.00,,,0.96,Wunderground v.1.15,2013-09-10 01:40:00,
2013-09-09 19:50:00,61.2,58.2,29.75,East,101,0.0,0.0,90,0.00,,,0.96,Wunderground v.1.15,2013-09-10 01:50:00,
2013-09-09 20:00:00,61.1,58.1,29.75,East,101,0.0,0.0,90,0.00,,,0.96,Wunderground v.1.15,2013-09-10 02:00:00,
2013-09-09 20:10:00,61.1,58.1,29.77,East,101,0.0,0.0,90,0.00,,,0.96,Wunderground v.1.15,2013-09-10 02:10:00,
2013-09-09 20:20:00,61.1,58.1,29.77,East,101,0.0,0.0,90,0.00,,,0.96,Wunderground v.1.15,2013-09-10 02:20:00,
2013-09-09 20:30:00,61.1,58.1,29.77,East,101,0.0,0.0,90,0.00,,,0.96,Wunderground v.1.15,2013-09-10 02:30:00,
2013-09-09 20:40:00,61.1,58.1,29.77,East,101,0.0,0.0,90,0.00,,,0.96,Wunderground v.1.15,2013-09-10 02:40:00,
2013-09-09 20:50:00,61.1,58.1,29.78,East,101,0.0,0.0,90,0.00,,,0.97,Wunderground v.1.15,2013-09-10 02:50:00,
2013-09-09 21:00:00,60.9,57.9,29.78,East,101,0.0,0.0,90,0.00,,,0.97,Wunderground v.1.15,2013-09-10 03:00:00,
2013-09-09 21:10:00,60.9,57.9,29.78,East,101,0.0,0.0,90,0.00,,,0.97,Wunderground v.1.15,2013-09-10 03:10:00,
2013-09-09 21:20:00,60.8,57.8,29.78,East,99,0.0,0.0,90,0.00,,,0.97,Wunderground v.1.15,2013-09-10 03:20:00,
2013-09-09 21:30:00,60.6,57.7,29.78,East,84,0.0,0.0,90,0.00,,,0.97,Wunderground v.1.15,2013-09-10 03:30:00,
2013-09-09 21:40:00,60.6,57.7,29.79,East,84,0.0,0.0,90,0.00,,,0.97,Wunderground v.1.15,2013-09-10 03:40:00,
2013-09-09 21:50:00,60.8,57.8,29.79,East,84,0.0,0.0,90,0.00,,,0.97,Wunderground v.1.15,2013-09-10 03:50:00,
2013-09-09 22:00:00,61.0,58.0,29.80,ENE,71,0.0,0.0,90,0.00,,,0.97,Wunderground v.1.15,2013-09-10 04:00:00,
2013-09-09 22:09:00,61.1,58.1,29.79,ENE,75,0.0,0.0,90,0.00,,,0.97,Wunderground v.1.15,2013-09-10 04:09:00,
2013-09-09 22:20:00,61.3,58.0,29.80,East,79,0.0,0.0,89,0.00,,,0.97,Wunderground v.1.15,2013-09-10 04:20:00,
2013-09-09 22:30:00,61.4,58.1,29.80,East,79,0.0,0.0,89,0.00,,,0.97,Wunderground v.1.15,2013-09-10 04:30:00,
2013-09-09 22:40:00,61.5,58.2,29.80,East,79,0.0,0.0,89,0.00,,,0.97,Wunderground v.1.15,2013-09-10 04:40:00,
2013-09-09 22:50:00,61.5,58.2,29.81,East,79,0.0,0.0,89,0.00,,,0.97,Wunderground v.1.15,2013-09-10 04:50:00,
2013-09-09 23:00:00,61.4,58.1,29.81,East,80,0.0,0.0,89,0.00,,,0.98,Wunderground v.1.15,2013-09-10 05:00:00,
2013-09-09 23:10:00,61.4,58.1,29.81,East,79,1.0,1.0,89,0.06,,,0.99,Wunderground v.1.15,2013-09-10 05:10:00,
2013-09-09 23:19:00,61.2,57.9,29.81,East,80,0.0,0.0,89,0.09,,,1.00,Wunderground v.1.15,2013-09-10 05:19:00,
2013-09-09 23:30:00,61.1,57.8,29.81,East,80,0.0,0.0,89,0.06,,,1.01,Wunderground v.1.15,2013-09-10 05:30:00,
2013-09-09 23:40:00,61.1,57.8,29.82,East,79,0.0,0.0,89,0.05,,,1.02,Wunderground v.1.15,2013-09-10 05:40:00,
2013-09-09 23:50:00,61.1,57.8,29.81,East,80,0.0,0.0,89,0.04,,,1.03,Wunderground v.1.15,2013-09-10 05:50:00,
2013-09-09 23:59:00,61.0,57.7,29.82,East,79,0.0,0.0,89,0.07,,,1.04,Wunderground v.1.15,2013-09-10 05:59:00,